Time;durP1;ratioP1;P1;durP2;ratioP2;P2;SDS_P1;SDS_P2;PMS_P1;PMS_P2;Temp;Humidity;BMP_temperature;BMP_pressure;BME280_temperature;BME280_humidity;BME280_pressure;Samples;Min_cycle;Max_cycle;Signal;HPM_P1;HPM_P2
2022/09/16 00:01:00;;;;;;;12.35;11.75;;;;;;;22.87;100.00;99273.19;5056574;28;20123;-68
2022/09/16 00:03:26;;;;;;;13.30;12.60;;;;;;;22.84;100.00;99274.56;5049891;28;20072;-68
2022/09/16 00:05:53;;;;;;;12.68;12.07;;;;;;;22.85;100.00;99270.78;5051816;28;20518;-68
2022/09/16 00:08:20;;;;;;;13.27;12.57;;;;;;;22.80;100.00;99265.38;5050426;28;20028;-68
2022/09/16 00:10:46;;;;;;;12.77;12.18;;;;;;;22.76;100.00;99271.66;5051514;28;20100;-68
2022/09/16 00:13:13;;;;;;;13.40;12.70;;;;;;;22.83;100.00;99270.22;5051709;28;20037;-68
2022/09/16 00:15:43;;;;;;;12.75;12.15;;;;;;;22.79;100.00;99263.78;5062644;28;20437;-68
2022/09/16 00:18:10;;;;;;;12.80;12.20;;;;;;;22.76;100.00;99261.63;5051787;28;20028;-68
2022/09/16 00:20:35;;;;;;;12.70;12.10;;;;;;;22.80;100.00;99270.81;5050129;28;20495;-68
2022/09/16 00:23:01;;;;;;;13.15;12.45;;;;;;;22.77;100.00;99271.38;5050445;28;20021;-67
2022/09/16 00:25:26;;;;;;;12.20;11.60;;;;;;;22.74;100.00;99274.63;5051291;28;20025;-67
2022/09/16 00:27:51;;;;;;;12.45;11.85;;;;;;;22.70;100.00;99262.00;5051630;28;20032;-68
2022/09/16 00:30:17;;;;;;;13.43;12.73;;;;;;;22.76;100.00;99260.84;5050423;28;20037;-68
2022/09/16 00:32:43;;;;;;;13.27;12.57;;;;;;;22.82;100.00;99265.91;5045188;28;20098;-67
2022/09/16 00:35:09;;;;;;;12.40;11.80;;;;;;;22.78;100.00;99259.47;5044413;28;20025;-69
2022/09/16 00:37:34;;;;;;;13.25;12.55;;;;;;;22.77;100.00;99262.47;5050077;28;20474;-68
2022/09/16 00:40:00;;;;;;;13.18;12.48;;;;;;;22.79;100.00;99268.38;5049473;28;20040;-69
2022/09/16 00:42:25;;;;;;;12.98;12.38;;;;;;;22.74;100.00;99257.63;5051679;28;20024;-69
2022/09/16 00:45:13;;;;;;;12.88;12.27;;;;;;;22.72;100.00;99278.72;5051137;28;20021;-69
2022/09/16 00:47:44;;;;;;;13.10;12.43;;;;;;;22.73;100.00;99269.53;5032035;28;20029;-68
2022/09/16 00:50:18;;;;;;;13.30;12.60;;;;;;;22.79;100.00;99269.19;5050091;28;20048;-68
2022/09/16 00:52:43;;;;;;;13.05;12.35;;;;;;;22.79;100.00;99265.69;5051162;28;20439;-68
2022/09/16 00:55:14;;;;;;;13.25;12.55;;;;;;;22.78;100.00;99264.06;5044943;28;20102;-68
2022/09/16 00:57:40;;;;;;;13.73;13.02;;;;;;;22.83;100.00;99272.13;5041576;28;20025;-68
2022/09/16 01:00:10;;;;;;;13.60;12.90;;;;;;;22.92;100.00;99261.53;5048455;28;20017;-68
2022/09/16 01:02:35;;;;;;;13.13;12.50;;;;;;;22.86;100.00;99258.06;5052342;28;20021;-68
2022/09/16 01:05:04;;;;;;;13.40;12.70;;;;;;;22.94;100.00;99264.75;5052347;28;20032;-68
2022/09/16 01:07:46;;;;;;;13.10;12.50;;;;;;;23.02;100.00;99250.59;5062295;28;20036;-68
2022/09/16 01:10:18;;;;;;;13.25;12.55;;;;;;;23.02;100.00;99256.00;5049726;28;20035;-68
2022/09/16 01:12:53;;;;;;;12.75;12.15;;;;;;;23.02;100.00;99256.81;5049796;28;20029;-68
2022/09/16 01:15:23;;;;;;;13.00;12.40;;;;;;;23.02;100.00;99258.72;5049982;28;20036;-68
2022/09/16 01:18:14;;;;;;;12.90;12.27;;;;;;;22.97;100.00;99264.97;5051019;28;20063;-68
2022/09/16 01:20:52;;;;;;;13.45;12.75;;;;;;;23.05;100.00;99268.94;5050495;28;20059;-68
2022/09/16 01:23:48;;;;;;;13.10;12.45;;;;;;;22.99;100.00;99270.09;5047063;28;20045;-67
2022/09/16 01:26:29;;;;;;;12.38;11.77;;;;;;;22.91;100.00;99286.94;5049507;28;20399;-67
2022/09/16 01:29:40;;;;;;;14.27;13.48;;;;;;;22.93;100.00;99277.47;5040010;28;20029;-67
2022/09/16 01:32:46;;;;;;;12.98;12.38;;;;;;;22.98;100.00;99282.00;5051432;28;20074;-68
2022/09/16 01:36:00;;;;;;;13.10;12.43;;;;;;;22.73;100.00;99278.44;5039031;28;20272;-68
2022/09/16 01:38:37;;;;;;;12.73;12.13;;;;;;;22.80;100.00;99289.72;5045213;28;20037;-67
2022/09/16 01:41:17;;;;;;;13.32;12.63;;;;;;;22.78;100.00;99294.63;5044129;28;20040;-69
2022/09/16 01:44:05;;;;;;;13.02;12.40;;;;;;;22.81;100.00;99304.06;5054457;28;20025;-69
2022/09/16 01:46:33;;;;;;;12.77;12.18;;;;;;;22.65;100.00;99292.56;5054360;28;20069;-68
2022/09/16 01:48:59;;;;;;;12.93;12.32;;;;;;;22.64;100.00;99303.69;5052462;28;20430;-68
2022/09/16 01:51:39;;;;;;;13.07;12.40;;;;;;;22.65;100.00;99308.78;5051223;28;20056;-68
2022/09/16 01:54:28;;;;;;;12.50;11.90;;;;;;;22.66;100.00;99302.28;5054102;28;20111;-69
2022/09/16 01:57:06;;;;;;;12.98;12.38;;;;;;;22.73;100.00;99304.66;5052890;28;20033;-68
2022/09/16 01:59:51;;;;;;;12.63;12.02;;;;;;;22.70;100.00;99311.47;5054133;28;20559;-69
2022/09/16 02:02:22;;;;;;;12.73;12.13;;;;;;;22.67;100.00;99309.31;5053839;28;20123;-69
2022/09/16 02:04:53;;;;;;;12.70;12.10;;;;;;;22.70;100.00;99314.16;5049174;28;20032;-69
2022/09/16 02:07:22;;;;;;;12.45;11.85;;;;;;;22.75;100.00;99329.53;5052551;28;20029;-69
2022/09/16 02:09:53;;;;;;;13.55;12.85;;;;;;;22.74;100.00;99317.91;5053915;28;20448;-68
2022/09/16 02:12:24;;;;;;;12.60;12.00;;;;;;;22.76;100.00;99323.00;5053930;28;20040;-68
2022/09/16 02:14:56;;;;;;;13.00;12.40;;;;;;;22.78;100.00;99323.56;5053511;28;20036;-68
2022/09/16 02:17:26;;;;;;;12.63;12.02;;;;;;;22.73;100.00;99323.59;5053887;28;20020;-67
2022/09/16 02:20:00;;;;;;;12.63;12.02;;;;;;;22.73;100.00;99318.19;5053673;28;20043;-67
2022/09/16 02:22:42;;;;;;;12.10;11.50;;;;;;;22.68;100.00;99321.72;5051449;28;20037;-67
2022/09/16 02:25:10;;;;;;;12.90;12.30;;;;;;;22.58;100.00;99321.81;5048901;28;20044;-68
2022/09/16 02:27:38;;;;;;;12.90;12.30;;;;;;;22.51;100.00;99318.66;5045216;28;20029;-68
2022/09/16 02:30:11;;;;;;;12.70;12.10;;;;;;;22.43;100.00;99322.75;5053291;28;20103;-68
2022/09/16 02:32:43;;;;;;;12.80;12.20;;;;;;;22.39;100.00;99323.59;5058686;28;20112;-68
2022/09/16 02:35:13;;;;;;;12.40;11.80;;;;;;;22.40;100.00;99315.22;5051388;28;20115;-67
2022/09/16 02:37:44;;;;;;;13.48;12.77;;;;;;;22.45;100.00;99319.75;5046068;28;20032;-68
2022/09/16 02:40:25;;;;;;;12.90;12.30;;;;;;;22.32;100.00;99324.72;5050014;28;20113;-68
2022/09/16 02:42:51;;;;;;;12.98;12.32;;;;;;;22.33;100.00;99333.66;5053422;28;20062;-68
2022/09/16 02:45:18;;;;;;;14.35;13.55;;;;;;;22.22;100.00;99329.41;5050586;28;20088;-68
2022/09/16 02:47:50;;;;;;;12.85;12.25;;;;;;;22.18;100.00;99326.47;5040480;28;20111;-69
2022/09/16 02:50:51;;;;;;;13.35;12.65;;;;;;;22.26;100.00;99316.94;5050431;28;20053;-68
2022/09/16 02:53:38;;;;;;;12.82;12.23;;;;;;;22.26;100.00;99319.66;5053137;28;20048;-69
2022/09/16 02:56:13;;;;;;;13.52;12.82;;;;;;;22.18;100.00;99314.81;5047399;28;20441;-69
2022/09/16 02:58:39;;;;;;;12.70;12.10;;;;;;;22.17;100.00;99315.91;5053149;28;20021;-68
2022/09/16 03:01:05;;;;;;;13.30;12.60;;;;;;;22.26;100.00;99344.78;5057328;28;20115;-68
2022/09/16 03:03:31;;;;;;;12.65;12.05;;;;;;;22.20;100.00;99334.28;5058390;28;20116;-67
2022/09/16 03:06:02;;;;;;;12.82;12.23;;;;;;;22.19;100.00;99340.78;5051661;28;20455;-68
2022/09/16 03:08:28;;;;;;;12.70;12.10;;;;;;;22.13;100.00;99347.28;5053043;28;20074;-68
2022/09/16 03:11:00;;;;;;;12.57;11.98;;;;;;;22.15;100.00;99354.00;5052673;28;20033;-69
2022/09/16 03:13:41;;;;;;;12.75;12.15;;;;;;;22.11;100.00;99363.78;5050498;28;20492;-68
2022/09/16 03:16:20;;;;;;;12.82;12.23;;;;;;;22.06;100.00;99358.38;5052060;28;20028;-68
2022/09/16 03:19:14;;;;;;;12.70;12.10;;;;;;;22.13;100.00;99355.38;5052728;28;20021;-69
2022/09/16 03:21:53;;;;;;;12.60;12.00;;;;;;;22.13;100.00;99371.59;5052118;28;20102;-68
2022/09/16 03:24:57;;;;;;;13.00;12.32;;;;;;;22.14;100.00;99365.09;5056556;28;20492;-68
2022/09/16 03:27:46;;;;;;;14.48;13.68;;;;;;;22.24;100.00;99365.03;5046833;28;20042;-67
2022/09/16 03:30:12;;;;;;;12.57;11.98;;;;;;;22.19;100.00;99362.38;5051551;28;20048;-69
2022/09/16 03:32:46;;;;;;;12.90;12.30;;;;;;;22.21;100.00;99361.00;5051944;28;20497;-69
2022/09/16 03:35:34;;;;;;;13.05;12.35;;;;;;;22.17;100.00;99351.84;5051763;28;20059;-70
2022/09/16 03:38:01;;;;;;;12.43;11.82;;;;;;;22.14;100.00;99362.41;5041653;28;20369;-69
2022/09/16 03:40:28;;;;;;;12.68;12.07;;;;;;;22.11;100.00;99350.28;5034448;28;20033;-69
2022/09/16 03:42:56;;;;;;;13.00;12.30;;;;;;;22.03;100.00;99361.59;5051302;28;20052;-69
2022/09/16 03:45:22;;;;;;;13.05;12.35;;;;;;;22.11;100.00;99357.53;5049743;28;20065;-69
2022/09/16 03:47:49;;;;;;;12.85;12.20;;;;;;;22.01;100.00;99371.88;5046747;28;20033;-68
2022/09/16 03:50:16;;;;;;;13.63;12.93;;;;;;;21.90;100.00;99378.44;5059979;28;20029;-70
2022/09/16 03:52:41;;;;;;;12.75;12.15;;;;;;;22.00;100.00;99375.69;5052172;28;20017;-69
2022/09/16 03:55:09;;;;;;;12.48;11.88;;;;;;;21.96;100.00;99380.84;5084153;28;20017;-69
2022/09/16 03:57:35;;;;;;;12.70;12.10;;;;;;;22.02;100.00;99387.00;5052116;28;20021;-68
2022/09/16 04:00:01;;;;;;;13.32;12.63;;;;;;;22.06;100.00;99374.56;5051422;28;20024;-68
2022/09/16 04:02:27;;;;;;;13.52;12.82;;;;;;;22.15;100.00;99372.13;5053617;28;20024;-69
2022/09/16 04:04:52;;;;;;;12.80;12.20;;;;;;;22.40;100.00;99379.25;5040328;28;20035;-69
2022/09/16 04:07:18;;;;;;;15.05;14.15;;;;;;;22.96;100.00;99378.84;5052213;28;20066;-69
2022/09/16 04:09:43;;;;;;;12.43;11.82;;;;;;;23.48;100.00;99380.75;5052245;28;20025;-69
2022/09/16 04:12:09;;;;;;;13.02;12.38;;;;;;;23.63;100.00;99382.53;5051546;28;20029;-67
2022/09/16 04:14:35;;;;;;;12.52;11.93;;;;;;;23.21;100.00;99386.75;5051177;28;20028;-67
2022/09/16 04:17:01;;;;;;;13.10;12.40;;;;;;;23.00;100.00;99385.31;5051510;28;20025;-69
2022/09/16 04:19:27;;;;;;;12.38;11.77;;;;;;;22.79;100.00;99388.16;5038950;28;20029;-68
2022/09/16 04:21:52;;;;;;;13.27;12.57;;;;;;;22.84;100.00;99385.44;5052529;28;20415;-68
2022/09/16 04:24:18;;;;;;;12.40;11.80;;;;;;;22.81;100.00;99396.00;5052166;28;20407;-68
2022/09/16 04:26:44;;;;;;;13.63;12.90;;;;;;;22.84;100.00;99401.66;5050366;28;20020;-68
2022/09/16 04:29:10;;;;;;;13.32;12.63;;;;;;;22.85;100.00;99397.03;5051208;28;20386;-68
2022/09/16 04:31:36;;;;;;;12.50;11.90;;;;;;;22.81;100.00;99393.28;5051360;28;20396;-68
2022/09/16 04:34:02;;;;;;;15.23;14.32;;;;;;;22.99;100.00;99405.31;5050899;28;20033;-68
2022/09/16 04:36:28;;;;;;;13.57;12.88;;;;;;;23.08;100.00;99406.34;5047541;28;20048;-68
2022/09/16 04:38:54;;;;;;;15.30;14.43;;;;;;;23.01;100.00;99416.69;5048700;28;20021;-67
2022/09/16 04:41:22;;;;;;;13.18;12.48;;;;;;;23.90;100.00;99417.16;5050958;28;20734;-68
2022/09/16 04:43:58;;;;;;;13.32;12.63;;;;;;;24.66;100.00;99428.88;5051288;28;20079;-68
2022/09/16 04:46:26;;;;;;;13.90;13.20;;;;;;;24.66;100.00;99437.81;5050674;28;20049;-67
2022/09/16 04:48:53;;;;;;;13.27;12.57;;;;;;;23.47;100.00;99446.03;5050967;28;20021;-69
2022/09/16 04:51:19;;;;;;;14.05;13.25;;;;;;;23.09;100.00;99440.41;5050909;28;20039;-69
2022/09/16 04:53:45;;;;;;;14.07;13.32;;;;;;;22.93;100.00;99438.94;5040857;28;20036;-70
2022/09/16 04:56:20;;;;;;;14.32;13.52;;;;;;;22.76;100.00;99445.50;5050681;28;20484;-69
2022/09/16 04:58:49;;;;;;;14.35;13.55;;;;;;;22.69;100.00;99447.69;5051289;28;20062;-70
2022/09/16 05:01:17;;;;;;;13.48;12.77;;;;;;;22.59;100.00;99453.19;5051656;28;20107;-68
2022/09/16 05:03:46;;;;;;;13.20;12.50;;;;;;;22.68;100.00;99451.50;5050661;28;20054;-69
2022/09/16 05:06:19;;;;;;;13.98;13.25;;;;;;;22.49;100.00;99453.25;5050661;28;20021;-70
2022/09/16 05:08:45;;;;;;;13.38;12.68;;;;;;;22.54;100.00;99464.81;5049530;28;20377;-68
2022/09/16 05:11:13;;;;;;;13.52;12.82;;;;;;;22.48;100.00;99462.47;5051936;28;20090;-68
2022/09/16 05:13:40;;;;;;;13.25;12.55;;;;;;;22.45;100.00;99468.41;5050905;28;20060;-68
2022/09/16 05:16:11;;;;;;;13.90;13.20;;;;;;;22.34;100.00;99473.06;5043022;28;20057;-68
2022/09/16 05:18:38;;;;;;;13.52;12.82;;;;;;;22.27;100.00;99480.66;5051456;28;20083;-68
2022/09/16 05:21:07;;;;;;;13.70;13.00;;;;;;;22.11;100.00;99493.44;5054514;28;20091;-69
2022/09/16 05:23:33;;;;;;;13.75;13.05;;;;;;;22.06;100.00;99494.22;5054505;28;20021;-68
2022/09/16 05:26:09;;;;;;;13.48;12.77;;;;;;;21.89;100.00;99482.13;5054872;28;20568;-70
2022/09/16 05:28:35;;;;;;;13.38;12.68;;;;;;;21.94;100.00;99498.28;5040028;28;20511;-69
2022/09/16 05:31:14;;;;;;;13.85;13.15;;;;;;;21.87;100.00;99511.28;5086687;28;20032;-68
2022/09/16 05:33:41;;;;;;;14.63;13.82;;;;;;;21.92;100.00;99498.56;5050667;28;20591;-68
2022/09/16 05:36:10;;;;;;;13.38;12.68;;;;;;;21.86;100.00;99502.38;5054157;28;20027;-68
2022/09/16 05:38:35;;;;;;;13.68;12.98;;;;;;;21.84;100.00;99503.72;5054607;28;20033;-69
2022/09/16 05:41:02;;;;;;;13.73;13.02;;;;;;;21.74;100.00;99518.03;5054345;28;20027;-68
2022/09/16 05:43:28;;;;;;;13.43;12.73;;;;;;;21.74;100.00;99520.75;5046827;28;20020;-68
2022/09/16 05:45:54;;;;;;;14.13;13.32;;;;;;;21.55;100.00;99525.09;5053041;28;20049;-70
2022/09/16 05:48:22;;;;;;;13.35;12.65;;;;;;;21.32;100.00;99534.56;5050162;28;20463;-67
2022/09/16 05:50:58;;;;;;;14.40;13.60;;;;;;;21.39;100.00;99533.22;5051484;28;20025;-69
2022/09/16 05:53:25;;;;;;;13.75;13.05;;;;;;;21.55;100.00;99525.91;5052728;28;20492;-65
2022/09/16 05:56:00;;;;;;;13.00;12.40;;;;;;;21.60;100.00;99533.19;5049657;28;20041;-65
2022/09/16 05:58:28;;;;;;;13.80;13.10;;;;;;;21.47;100.00;99534.56;5053923;28;20085;-65
2022/09/16 06:01:00;;;;;;;13.65;12.95;;;;;;;21.63;100.00;99540.75;5050382;28;20083;-66
2022/09/16 06:03:27;;;;;;;13.65;12.95;;;;;;;21.55;100.00;99539.41;5052966;28;20506;-66
2022/09/16 06:06:22;;;;;;;13.52;12.82;;;;;;;21.63;100.00;99543.44;5051766;28;20068;-66
2022/09/16 06:08:48;;;;;;;14.20;13.40;;;;;;;21.60;100.00;99544.00;5052450;28;20060;-67
2022/09/16 06:11:13;;;;;;;13.93;13.18;;;;;;;21.72;100.00;99541.81;5050443;28;20028;-67
2022/09/16 06:13:39;;;;;;;13.80;13.10;;;;;;;21.68;100.00;99573.13;5049639;28;20140;-67
2022/09/16 06:16:06;;;;;;;15.63;14.70;;;;;;;21.54;100.00;99578.25;5053604;28;20024;-66
2022/09/16 06:18:32;;;;;;;13.30;12.60;;;;;;;21.57;100.00;99569.63;5052444;28;20384;-67
2022/09/16 06:21:05;;;;;;;13.40;12.70;;;;;;;21.75;100.00;99582.56;5052658;28;20033;-67
2022/09/16 06:23:33;;;;;;;14.07;13.27;;;;;;;21.73;100.00;99589.31;5040576;28;20032;-67
2022/09/16 06:26:13;;;;;;;13.48;12.77;;;;;;;21.78;100.00;99592.03;5037164;28;20041;-66
2022/09/16 06:28:38;;;;;;;13.52;12.82;;;;;;;21.79;100.00;99596.34;5034462;28;20481;-67
2022/09/16 06:31:05;;;;;;;14.07;13.32;;;;;;;22.01;100.00;99604.13;5057342;28;20029;-66
2022/09/16 06:33:31;;;;;;;13.60;12.90;;;;;;;22.00;100.00;99600.63;5053565;28;20021;-67
2022/09/16 06:35:57;;;;;;;13.45;12.75;;;;;;;21.92;100.00;99600.38;5045760;28;20021;-66
2022/09/16 06:38:23;;;;;;;13.95;13.18;;;;;;;21.81;100.00;99604.97;5040672;28;20036;-66
2022/09/16 06:40:49;;;;;;;13.55;12.85;;;;;;;22.13;100.00;99604.69;5047043;28;20544;-66
2022/09/16 06:43:15;;;;;;;13.32;12.63;;;;;;;21.93;100.00;99608.19;5043816;28;20159;-66
2022/09/16 06:45:40;;;;;;;16.42;15.40;;;;;;;21.94;100.00;99617.09;5047735;28;20093;-73
2022/09/16 06:48:06;;;;;;;14.18;13.38;;;;;;;22.06;100.00;99617.66;5043801;28;20120;-71
2022/09/16 06:50:31;;;;;;;13.63;12.93;;;;;;;21.87;100.00;99611.97;5052826;28;20025;-70
2022/09/16 06:52:57;;;;;;;14.40;13.60;;;;;;;21.76;100.00;99615.78;5049669;28;20061;-71
2022/09/16 06:55:22;;;;;;;13.30;12.60;;;;;;;21.84;100.00;99615.25;5049120;28;20068;-70
2022/09/16 06:57:48;;;;;;;13.57;12.88;;;;;;;21.63;100.00;99614.44;5045577;28;20482;-71
2022/09/16 07:00:14;;;;;;;13.63;12.93;;;;;;;21.85;100.00;99621.44;5052406;28;20044;-71
2022/09/16 07:02:40;;;;;;;12.93;12.32;;;;;;;21.84;100.00;99628.75;5054911;28;20399;-71
2022/09/16 07:05:06;;;;;;;13.38;12.68;;;;;;;21.70;100.00;99624.97;5056310;28;20033;-71
2022/09/16 07:07:32;;;;;;;13.02;12.43;;;;;;;22.11;100.00;99625.78;5057996;28;20055;-71
2022/09/16 07:09:58;;;;;;;13.30;12.60;;;;;;;22.40;100.00;99627.84;5054111;28;20025;-71
2022/09/16 07:12:23;;;;;;;13.15;12.45;;;;;;;22.29;100.00;99640.59;5038887;28;20025;-71
2022/09/16 07:14:49;;;;;;;13.02;12.40;;;;;;;22.22;100.00;99621.16;5051648;28;20048;-71
2022/09/16 07:17:14;;;;;;;13.40;12.70;;;;;;;22.11;100.00;99636.59;5052166;28;20029;-69
2022/09/16 07:19:41;;;;;;;13.57;12.88;;;;;;;22.26;100.00;99639.25;5050871;28;20508;-70
2022/09/16 07:22:06;;;;;;;13.00;12.40;;;;;;;23.99;100.00;99627.53;5052432;28;20029;-71
2022/09/16 07:24:33;;;;;;;13.90;13.20;;;;;;;25.47;100.00;99633.09;5047727;28;20493;-71
2022/09/16 07:26:59;;;;;;;13.68;12.98;;;;;;;26.87;100.00;99637.41;5050369;28;20064;-73
2022/09/16 07:29:24;;;;;;;12.80;12.20;;;;;;;28.01;100.00;99628.00;5046952;28;20191;-71
2022/09/16 07:31:50;;;;;;;12.48;11.88;;;;;;;28.71;100.00;99628.28;5043828;28;20111;-68
2022/09/16 07:34:16;;;;;;;12.90;12.30;;;;;;;30.23;100.00;99639.09;5054060;28;20036;-70
2022/09/16 07:36:44;;;;;;;12.20;11.60;;;;;;;30.53;100.00;99645.44;5054830;28;20061;-69
2022/09/16 07:39:12;;;;;;;12.63;12.02;;;;;;;30.65;100.00;99645.53;5047417;28;20584;-71
2022/09/16 07:41:40;;;;;;;12.50;11.90;;;;;;;30.03;100.00;99640.59;5047845;28;20108;-71
2022/09/16 07:44:08;;;;;;;12.32;11.73;;;;;;;29.01;100.00;99651.19;5046919;28;20341;-72
2022/09/16 07:46:35;;;;;;;13.20;12.60;;;;;;;31.41;100.00;99652.81;5049906;28;20044;-71
2022/09/16 07:49:04;;;;;;;13.10;12.50;;;;;;;32.34;96.39;99634.19;5051511;28;20472;-72
2022/09/16 07:51:30;;;;;;;12.80;12.20;;;;;;;31.47;97.66;99639.72;5051850;28;20067;-70
2022/09/16 07:54:03;;;;;;;13.05;12.45;;;;;;;32.16;95.98;99648.06;5039498;28;20029;-72
2022/09/16 07:56:33;;;;;;;12.73;12.13;;;;;;;31.95;93.19;99643.78;5052488;28;20086;-74
2022/09/16 07:59:00;;;;;;;12.50;11.90;;;;;;;32.45;92.44;99654.56;5064907;28;20057;-72
2022/09/16 08:01:25;;;;;;;12.70;12.10;;;;;;;33.17;88.86;99647.44;5049383;28;20116;-71
2022/09/16 08:03:51;;;;;;;12.52;11.93;;;;;;;33.72;87.40;99665.16;5057329;28;20147;-72
2022/09/16 08:06:20;;;;;;;13.70;13.00;;;;;;;32.05;91.16;99660.66;5051444;28;20021;-71
2022/09/16 08:08:45;;;;;;;12.93;12.32;;;;;;;31.25;95.41;99651.81;5046272;28;20057;-70
2022/09/16 08:11:13;;;;;;;12.70;12.10;;;;;;;32.44;89.25;99663.94;5051710;28;20117;-71
2022/09/16 08:13:40;;;;;;;13.00;12.40;;;;;;;30.82;96.49;99674.78;5050461;28;20016;-71
2022/09/16 08:16:10;;;;;;;13.75;13.05;;;;;;;28.96;100.00;99667.75;5051378;28;20031;-71
2022/09/16 08:18:36;;;;;;;13.88;13.18;;;;;;;29.97;100.00;99680.19;5047823;28;20047;-72
2022/09/16 08:21:12;;;;;;;17.08;16.08;;;;;;;28.59;100.00;99675.31;5044888;28;20036;-71
2022/09/16 08:23:38;;;;;;;13.45;12.75;;;;;;;29.28;100.00;99666.50;5043411;28;20113;-74
2022/09/16 08:26:07;;;;;;;13.75;13.05;;;;;;;29.21;100.00;99672.44;5048302;28;20025;-73
2022/09/16 08:28:33;;;;;;;13.95;13.25;;;;;;;29.09;100.00;99677.75;5054304;28;20136;-75
2022/09/16 08:31:00;;;;;;;14.00;13.30;;;;;;;28.03;100.00;99684.94;5051319;28;20051;-72
2022/09/16 08:33:26;;;;;;;13.98;13.27;;;;;;;26.39;100.00;99692.25;5079504;28;20051;-71
2022/09/16 08:36:03;;;;;;;14.65;13.85;;;;;;;26.97;100.00;99691.66;5047881;28;20029;-70
2022/09/16 08:38:30;;;;;;;13.70;13.00;;;;;;;26.40;100.00;99688.41;5048557;28;20025;-73
2022/09/16 08:41:06;;;;;;;13.82;13.13;;;;;;;26.66;100.00;99680.56;5043519;28;20037;-70
2022/09/16 08:43:44;;;;;;;14.50;13.70;;;;;;;28.24;100.00;99682.50;5057894;28;20017;-72
2022/09/16 08:46:30;;;;;;;14.45;13.65;;;;;;;27.53;100.00;99682.28;5045884;28;20052;-71
2022/09/16 08:49:05;;;;;;;13.88;13.18;;;;;;;26.71;100.00;99683.19;5051779;28;20178;-70
2022/09/16 08:51:31;;;;;;;14.05;13.35;;;;;;;27.88;100.00;99688.03;5045520;28;20029;-71
2022/09/16 08:54:02;;;;;;;14.60;13.80;;;;;;;28.50;100.00;99699.84;5048503;28;20362;-71
2022/09/16 08:56:31;;;;;;;14.10;13.40;;;;;;;27.23;100.00;99711.81;5056327;28;20510;-71
2022/09/16 08:59:00;;;;;;;14.77;13.98;;;;;;;26.88;100.00;99713.34;5059227;28;20044;-71
2022/09/16 09:01:40;;;;;;;13.73;13.02;;;;;;;27.08;100.00;99730.38;5053004;28;20086;-72
2022/09/16 09:04:06;;;;;;;13.50;12.80;;;;;;;25.88;100.00;99723.78;5057586;28;20028;-70
2022/09/16 09:07:10;;;;;;;13.88;13.18;;;;;;;26.06;100.00;99732.97;5056661;28;20044;-70
2022/09/16 09:09:47;;;;;;;15.02;14.20;;;;;;;25.42;100.00;99728.22;5044703;28;20056;-70
2022/09/16 09:12:35;;;;;;;14.18;13.45;;;;;;;25.91;100.00;99735.94;5048627;28;20029;-73
2022/09/16 09:15:19;;;;;;;14.13;13.43;;;;;;;25.60;100.00;99730.94;5050161;28;20029;-72
2022/09/16 09:18:03;;;;;;;14.38;13.60;;;;;;;25.81;100.00;99728.78;5049149;28;20488;-71
2022/09/16 09:21:03;;;;;;;13.00;12.40;;;;;;;25.93;100.00;99730.22;5056980;28;20064;-72
2022/09/16 09:23:46;;;;;;;13.60;12.90;;;;;;;26.18;100.00;99732.53;5046129;28;20017;-72
2022/09/16 09:26:44;;;;;;;14.65;13.85;;;;;;;25.63;100.00;99729.53;5048964;28;20100;-73
2022/09/16 09:29:34;;;;;;;14.43;13.63;;;;;;;26.30;100.00;99737.50;5041670;28;20044;-70
2022/09/16 09:32:26;;;;;;;13.70;13.00;;;;;;;26.73;100.00;99738.09;5041128;28;20108;-70
2022/09/16 09:35:04;;;;;;;13.50;12.80;;;;;;;26.28;100.00;99743.22;5054171;28;20059;-70
2022/09/16 09:38:05;;;;;;;13.48;12.77;;;;;;;26.85;100.00;99745.78;5053475;28;20440;-72
2022/09/16 09:40:55;;;;;;;14.05;13.32;;;;;;;26.33;100.00;99736.91;5048789;28;20396;-70
2022/09/16 09:43:34;;;;;;;13.20;12.50;;;;;;;25.96;100.00;99738.59;5041104;28;20124;-72
2022/09/16 09:46:16;;;;;;;13.88;13.18;;;;;;;25.67;100.00;99741.44;5042907;28;20519;-72
2022/09/16 09:48:59;;;;;;;13.52;12.82;;;;;;;25.14;100.00;99748.94;5063865;28;20113;-69
2022/09/16 09:51:36;;;;;;;13.23;12.63;;;;;;;25.56;100.00;99756.25;5037056;28;20094;-72
2022/09/16 09:54:24;;;;;;;13.95;13.25;;;;;;;26.67;100.00;99748.28;5050986;28;20025;-70
2022/09/16 09:56:57;;;;;;;15.32;14.43;;;;;;;26.40;100.00;99743.59;5053400;28;20060;-71
2022/09/16 09:59:48;;;;;;;13.88;13.18;;;;;;;26.08;100.00;99740.88;5053866;28;20021;-73
2022/09/16 10:02:18;;;;;;;14.32;13.52;;;;;;;26.21;100.00;99750.16;5058341;28;20038;-72
2022/09/16 10:04:43;;;;;;;14.57;13.77;;;;;;;26.88;100.00;99751.44;5058337;28;20116;-71
2022/09/16 10:07:12;;;;;;;14.73;13.90;;;;;;;26.84;100.00;99752.34;5051812;28;20116;-72
2022/09/16 10:09:47;;;;;;;14.25;13.48;;;;;;;26.66;100.00;99745.84;5044479;28;20064;-71
2022/09/16 10:12:12;;;;;;;14.27;13.48;;;;;;;26.56;100.00;99741.41;5043694;28;20047;-72
2022/09/16 10:14:38;;;;;;;14.15;13.35;;;;;;;25.96;100.00;99735.88;5054352;28;20021;-71
2022/09/16 10:17:13;;;;;;;15.35;14.45;;;;;;;25.44;100.00;99726.84;5034442;28;20033;-72
2022/09/16 10:20:25;;;;;;;14.20;13.40;;;;;;;25.84;100.00;99743.66;5050654;28;20039;-70
2022/09/16 10:23:00;;;;;;;14.75;13.95;;;;;;;25.66;100.00;99749.91;5043426;28;20041;-71
2022/09/16 10:25:25;;;;;;;;;;;;;;;25.81;100.00;99745.06;5043920;28;20020;-72
2022/09/16 10:28:00;;;;;;;13.80;13.10;;;;;;;25.47;100.00;99737.09;5044965;28;19924;-71
2022/09/16 10:30:33;;;;;;;17.27;16.15;;;;;;;25.90;100.00;99746.00;5038822;28;20508;-68
2022/09/16 10:33:13;;;;;;;14.57;13.77;;;;;;;25.54;100.00;99747.59;5040455;28;20051;-71
2022/09/16 10:35:42;;;;;;;14.75;13.95;;;;;;;25.50;100.00;99757.44;5053192;28;20035;-72
2022/09/16 10:38:08;;;;;;;15.00;14.13;;;;;;;25.38;100.00;99754.34;5061299;28;20092;-70
2022/09/16 10:40:35;;;;;;;15.25;14.35;;;;;;;24.96;100.00;99748.56;5037219;28;20363;-70
2022/09/16 10:43:06;;;;;;;15.07;14.20;;;;;;;25.23;100.00;99761.56;5044438;28;20033;-72
2022/09/16 10:45:42;;;;;;;14.25;13.45;;;;;;;25.41;100.00;99762.69;5045759;28;20126;-71
2022/09/16 10:48:14;;;;;;;14.88;14.05;;;;;;;25.27;100.00;99759.09;5045242;28;20040;-70
2022/09/16 10:50:55;;;;;;;14.38;13.57;;;;;;;25.08;100.00;99762.56;5036792;28;20139;-71
2022/09/16 10:53:38;;;;;;;14.30;13.50;;;;;;;25.06;100.00;99756.63;5046552;28;20717;-69
2022/09/16 10:56:06;;;;;;;14.77;13.98;;;;;;;24.95;100.00;99748.84;5049585;28;20029;-67
2022/09/16 10:58:32;;;;;;;13.95;13.25;;;;;;;25.44;100.00;99756.69;5048485;28;20090;-66
2022/09/16 11:01:32;;;;;;;14.30;13.50;;;;;;;25.42;100.00;99752.69;5057940;28;20468;-67
2022/09/16 11:04:18;;;;;;;14.57;13.77;;;;;;;25.26;100.00;99763.69;5050486;28;20026;-67
2022/09/16 11:07:05;;;;;;;14.82;14.02;;;;;;;25.29;100.00;99756.91;5055911;28;20108;-70
2022/09/16 11:09:54;;;;;;;14.45;13.65;;;;;;;25.33;100.00;99742.44;5039766;28;20032;-68
2022/09/16 11:12:37;;;;;;;14.63;13.82;;;;;;;25.42;100.00;99744.53;5049178;28;20035;-68
2022/09/16 11:15:03;;;;;;;15.07;14.17;;;;;;;25.08;100.00;99732.72;5050679;28;20124;-66
2022/09/16 11:17:28;;;;;;;13.48;12.77;;;;;;;25.30;100.00;99726.75;5051116;28;20563;-65
2022/09/16 11:20:12;;;;;;;12.95;12.35;;;;;;;25.44;100.00;99726.84;5067826;28;20040;-68
2022/09/16 11:22:45;;;;;;;14.77;13.98;;;;;;;25.47;100.00;99728.94;5052146;28;20025;-65
2022/09/16 11:25:29;;;;;;;13.85;13.15;;;;;;;25.77;100.00;99727.72;5046795;28;20029;-65
2022/09/16 11:28:00;;;;;;;14.43;13.63;;;;;;;25.45;100.00;99727.63;5038615;28;20496;-65
2022/09/16 11:30:33;;;;;;;14.75;13.95;;;;;;;25.61;100.00;99737.19;5061823;28;20040;-66
2022/09/16 11:33:19;;;;;;;14.27;13.48;;;;;;;25.69;100.00;99722.94;5054325;28;20016;-65